sensor_id;sensor_type;location;lat;lon;timestamp;P1;durP1;ratioP1;P2;durP2;ratioP2
50367;SDS011;36281;34.132;-118.018;2023-03-04T00:00:10;6.53;;;5.65;;
50367;SDS011;36281;34.132;-118.018;2023-03-04T00:02:40;7.80;;;5.45;;
50367;SDS011;36281;34.132;-118.018;2023-03-04T00:05:09;10.07;;;6.20;;
50367;SDS011;36281;34.132;-118.018;2023-03-04T00:07:40;9.52;;;6.28;;
50367;SDS011;36281;34.132;-118.018;2023-03-04T00:10:10;8.25;;;6.45;;
50367;SDS011;36281;34.132;-118.018;2023-03-04T00:12:39;9.43;;;6.43;;
50367;SDS011;36281;34.132;-118.018;2023-03-04T00:15:09;9.85;;;6.68;;
50367;SDS011;36281;34.132;-118.018;2023-03-04T00:17:38;8.68;;;5.22;;
50367;SDS011;36281;34.132;-118.018;2023-03-04T00:20:07;8.95;;;6.78;;
50367;SDS011;36281;34.132;-118.018;2023-03-04T00:22:37;8.90;;;6.57;;
50367;SDS011;36281;34.132;-118.018;2023-03-04T00:25:09;8.43;;;5.95;;
50367;SDS011;36281;34.132;-118.018;2023-03-04T00:27:38;9.55;;;6.35;;
50367;SDS011;36281;34.132;-118.018;2023-03-04T00:30:07;9.60;;;6.32;;
50367;SDS011;36281;34.132;-118.018;2023-03-04T00:32:37;11.55;;;6.00;;
50367;SDS011;36281;34.132;-118.018;2023-03-04T00:35:06;9.02;;;5.43;;
50367;SDS011;36281;34.132;-118.018;2023-03-04T00:37:36;7.40;;;5.93;;
50367;SDS011;36281;34.132;-118.018;2023-03-04T00:40:05;7.97;;;5.43;;
50367;SDS011;36281;34.132;-118.018;2023-03-04T00:42:36;7.45;;;4.80;;
50367;SDS011;36281;34.132;-118.018;2023-03-04T00:45:06;6.50;;;4.90;;
50367;SDS011;36281;34.132;-118.018;2023-03-04T00:47:36;7.82;;;5.35;;
50367;SDS011;36281;34.132;-118.018;2023-03-04T00:50:05;9.45;;;5.47;;
50367;SDS011;36281;34.132;-118.018;2023-03-04T00:52:35;9.43;;;4.95;;
50367;SDS011;36281;34.132;-118.018;2023-03-04T00:55:04;6.43;;;4.78;;
50367;SDS011;36281;34.132;-118.018;2023-03-04T00:57:36;7.80;;;4.60;;
50367;SDS011;36281;34.132;-118.018;2023-03-04T01:00:05;7.72;;;4.57;;
50367;SDS011;36281;34.132;-118.018;2023-03-04T01:02:35;7.13;;;4.57;;
50367;SDS011;36281;34.132;-118.018;2023-03-04T01:05:05;8.50;;;4.80;;
50367;SDS011;36281;34.132;-118.018;2023-03-04T01:07:35;6.07;;;5.13;;
50367;SDS011;36281;34.132;-118.018;2023-03-04T01:10:05;7.50;;;4.78;;
50367;SDS011;36281;34.132;-118.018;2023-03-04T01:12:38;6.90;;;4.75;;
50367;SDS011;36281;34.132;-118.018;2023-03-04T01:15:09;8.23;;;4.82;;
50367;SDS011;36281;34.132;-118.018;2023-03-04T01:17:39;6.63;;;4.40;;
50367;SDS011;36281;34.132;-118.018;2023-03-04T01:20:09;7.47;;;4.57;;
50367;SDS011;36281;34.132;-118.018;2023-03-04T01:22:38;6.45;;;4.65;;
50367;SDS011;36281;34.132;-118.018;2023-03-04T01:25:08;5.60;;;4.95;;
50367;SDS011;36281;34.132;-118.018;2023-03-04T01:27:39;9.52;;;4.75;;
50367;SDS011;36281;34.132;-118.018;2023-03-04T01:30:09;6.90;;;4.40;;
50367;SDS011;36281;34.132;-118.018;2023-03-04T01:32:39;8.43;;;4.90;;
50367;SDS011;36281;34.132;-118.018;2023-03-04T01:35:08;7.78;;;4.50;;
50367;SDS011;36281;34.132;-118.018;2023-03-04T01:37:37;7.75;;;4.25;;
50367;SDS011;36281;34.132;-118.018;2023-03-04T01:40:07;7.43;;;4.65;;
50367;SDS011;36281;34.132;-118.018;2023-03-04T01:42:39;6.20;;;4.20;;
50367;SDS011;36281;34.132;-118.018;2023-03-04T01:45:10;6.25;;;4.40;;
50367;SDS011;36281;34.132;-118.018;2023-03-04T01:47:43;6.63;;;4.25;;
50367;SDS011;36281;34.132;-118.018;2023-03-04T01:50:16;7.68;;;4.15;;
50367;SDS011;36281;34.132;-118.018;2023-03-04T01:52:48;6.00;;;4.15;;
50367;SDS011;36281;34.132;-118.018;2023-03-04T01:55:18;8.73;;;4.20;;
50367;SDS011;36281;34.132;-118.018;2023-03-04T01:57:50;5.60;;;4.05;;
50367;SDS011;36281;34.132;-118.018;2023-03-04T02:00:24;6.53;;;3.60;;
50367;SDS011;36281;34.132;-118.018;2023-03-04T02:02:58;6.35;;;3.80;;
50367;SDS011;36281;34.132;-118.018;2023-03-04T02:05:29;5.55;;;4.03;;
50367;SDS011;36281;34.132;-118.018;2023-03-04T02:07:58;8.98;;;3.97;;
50367;SDS011;36281;34.132;-118.018;2023-03-04T02:10:28;8.07;;;3.55;;
50367;SDS011;36281;34.132;-118.018;2023-03-04T02:12:59;7.60;;;3.67;;
50367;SDS011;36281;34.132;-118.018;2023-03-04T02:15:29;6.72;;;3.47;;
50367;SDS011;36281;34.132;-118.018;2023-03-04T02:17:58;7.28;;;3.88;;
50367;SDS011;36281;34.132;-118.018;2023-03-04T02:20:31;5.22;;;3.63;;
50367;SDS011;36281;34.132;-118.018;2023-03-04T02:23:06;6.45;;;3.13;;
50367;SDS011;36281;34.132;-118.018;2023-03-04T02:25:42;5.32;;;3.30;;
50367;SDS011;36281;34.132;-118.018;2023-03-04T02:28:16;9.18;;;3.55;;
50367;SDS011;36281;34.132;-118.018;2023-03-04T02:30:45;7.05;;;3.55;;
50367;SDS011;36281;34.132;-118.018;2023-03-04T02:33:15;7.15;;;3.33;;
50367;SDS011;36281;34.132;-118.018;2023-03-04T02:35:46;5.68;;;3.40;;
50367;SDS011;36281;34.132;-118.018;2023-03-04T02:38:15;6.70;;;3.10;;
50367;SDS011;36281;34.132;-118.018;2023-03-04T02:40:45;8.15;;;3.42;;
50367;SDS011;36281;34.132;-118.018;2023-03-04T02:43:19;6.78;;;3.40;;
50367;SDS011;36281;34.132;-118.018;2023-03-04T02:45:48;5.97;;;3.50;;
50367;SDS011;36281;34.132;-118.018;2023-03-04T02:48:19;7.45;;;3.10;;
50367;SDS011;36281;34.132;-118.018;2023-03-04T02:50:49;9.90;;;3.15;;
50367;SDS011;36281;34.132;-118.018;2023-03-04T02:53:20;6.20;;;3.10;;
50367;SDS011;36281;34.132;-118.018;2023-03-04T02:55:49;5.93;;;2.80;;
50367;SDS011;36281;34.132;-118.018;2023-03-04T02:58:20;6.07;;;2.90;;
50367;SDS011;36281;34.132;-118.018;2023-03-04T03:00:49;5.78;;;2.90;;
50367;SDS011;36281;34.132;-118.018;2023-03-04T03:03:18;7.43;;;3.10;;
50367;SDS011;36281;34.132;-118.018;2023-03-04T03:05:47;7.95;;;3.53;;
50367;SDS011;36281;34.132;-118.018;2023-03-04T03:08:16;6.35;;;3.10;;
50367;SDS011;36281;34.132;-118.018;2023-03-04T03:10:45;5.90;;;3.00;;
50367;SDS011;36281;34.132;-118.018;2023-03-04T03:13:14;9.55;;;3.95;;
50367;SDS011;36281;34.132;-118.018;2023-03-04T03:15:45;6.60;;;3.30;;
50367;SDS011;36281;34.132;-118.018;2023-03-04T03:18:16;7.18;;;3.17;;
50367;SDS011;36281;34.132;-118.018;2023-03-04T03:20:45;7.82;;;2.70;;
50367;SDS011;36281;34.132;-118.018;2023-03-04T03:23:14;6.03;;;3.00;;
50367;SDS011;36281;34.132;-118.018;2023-03-04T03:25:44;5.82;;;3.13;;
50367;SDS011;36281;34.132;-118.018;2023-03-04T03:28:13;4.90;;;2.80;;
50367;SDS011;36281;34.132;-118.018;2023-03-04T03:30:42;5.53;;;2.72;;
50367;SDS011;36281;34.132;-118.018;2023-03-04T03:33:13;11.07;;;3.20;;
50367;SDS011;36281;34.132;-118.018;2023-03-04T03:35:42;7.70;;;3.22;;
50367;SDS011;36281;34.132;-118.018;2023-03-04T03:38:11;6.32;;;3.10;;
50367;SDS011;36281;34.132;-118.018;2023-03-04T03:40:40;7.88;;;3.30;;
50367;SDS011;36281;34.132;-118.018;2023-03-04T03:43:10;7.13;;;3.45;;
50367;SDS011;36281;34.132;-118.018;2023-03-04T03:45:39;7.72;;;3.60;;
50367;SDS011;36281;34.132;-118.018;2023-03-04T03:48:09;10.02;;;3.92;;
50367;SDS011;36281;34.132;-118.018;2023-03-04T03:50:38;12.95;;;4.25;;
50367;SDS011;36281;34.132;-118.018;2023-03-04T03:53:07;9.23;;;3.85;;
50367;SDS011;36281;34.132;-118.018;2023-03-04T03:55:36;10.95;;;4.10;;
50367;SDS011;36281;34.132;-118.018;2023-03-04T03:58:05;11.35;;;4.90;;
50367;SDS011;36281;34.132;-118.018;2023-03-04T04:00:34;10.45;;;6.60;;
50367;SDS011;36281;34.132;-118.018;2023-03-04T04:03:03;14.32;;;7.45;;
50367;SDS011;36281;34.132;-118.018;2023-03-04T04:05:34;12.00;;;5.90;;
50367;SDS011;36281;34.132;-118.018;2023-03-04T04:08:04;9.60;;;5.15;;
50367;SDS011;36281;34.132;-118.018;2023-03-04T04:10:33;13.40;;;5.32;;
50367;SDS011;36281;34.132;-118.018;2023-03-04T04:13:02;11.10;;;4.70;;
50367;SDS011;36281;34.132;-118.018;2023-03-04T04:15:31;7.30;;;3.60;;
50367;SDS011;36281;34.132;-118.018;2023-03-04T04:18:00;13.20;;;5.03;;
50367;SDS011;36281;34.132;-118.018;2023-03-04T04:20:29;15.85;;;4.90;;
50367;SDS011;36281;34.132;-118.018;2023-03-04T04:23:00;11.52;;;4.40;;
50367;SDS011;36281;34.132;-118.018;2023-03-04T04:25:30;10.77;;;4.05;;
50367;SDS011;36281;34.132;-118.018;2023-03-04T04:27:59;10.60;;;4.30;;
50367;SDS011;36281;34.132;-118.018;2023-03-04T04:30:28;8.13;;;4.22;;
50367;SDS011;36281;34.132;-118.018;2023-03-04T04:32:57;12.43;;;4.28;;
50367;SDS011;36281;34.132;-118.018;2023-03-04T04:35:28;10.43;;;4.13;;
50367;SDS011;36281;34.132;-118.018;2023-03-04T04:37:57;15.18;;;4.53;;
50367;SDS011;36281;34.132;-118.018;2023-03-04T04:40:29;12.40;;;4.63;;
50367;SDS011;36281;34.132;-118.018;2023-03-04T04:42:58;11.57;;;4.57;;
50367;SDS011;36281;34.132;-118.018;2023-03-04T04:45:27;11.07;;;4.30;;
50367;SDS011;36281;34.132;-118.018;2023-03-04T04:47:56;10.25;;;4.43;;
50367;SDS011;36281;34.132;-118.018;2023-03-04T04:50:25;8.80;;;4.13;;
50367;SDS011;36281;34.132;-118.018;2023-03-04T04:52:56;7.70;;;4.10;;
50367;SDS011;36281;34.132;-118.018;2023-03-04T04:55:27;8.75;;;3.95;;
50367;SDS011;36281;34.132;-118.018;2023-03-04T04:57:56;8.65;;;4.28;;
50367;SDS011;36281;34.132;-118.018;2023-03-04T05:00:25;9.55;;;4.20;;
50367;SDS011;36281;34.132;-118.018;2023-03-04T05:02:54;9.70;;;4.10;;
50367;SDS011;36281;34.132;-118.018;2023-03-04T05:05:24;10.85;;;4.40;;
50367;SDS011;36281;34.132;-118.018;2023-03-04T05:07:53;7.85;;;4.60;;
50367;SDS011;36281;34.132;-118.018;2023-03-04T05:10:22;9.05;;;3.88;;
50367;SDS011;36281;34.132;-118.018;2023-03-04T05:12:53;9.15;;;4.30;;
50367;SDS011;36281;34.132;-118.018;2023-03-04T05:15:22;10.32;;;4.53;;
50367;SDS011;36281;34.132;-118.018;2023-03-04T05:17:51;6.28;;;4.20;;
50367;SDS011;36281;34.132;-118.018;2023-03-04T05:20:20;11.23;;;5.10;;
50367;SDS011;36281;34.132;-118.018;2023-03-04T05:22:50;16.58;;;6.95;;
50367;SDS011;36281;34.132;-118.018;2023-03-04T05:25:20;17.55;;;6.55;;
50367;SDS011;36281;34.132;-118.018;2023-03-04T05:27:49;10.18;;;5.38;;
50367;SDS011;36281;34.132;-118.018;2023-03-04T05:30:19;12.40;;;6.07;;
50367;SDS011;36281;34.132;-118.018;2023-03-04T05:32:48;15.77;;;7.13;;
50367;SDS011;36281;34.132;-118.018;2023-03-04T05:35:18;12.20;;;7.32;;
50367;SDS011;36281;34.132;-118.018;2023-03-04T05:37:47;16.48;;;7.75;;
50367;SDS011;36281;34.132;-118.018;2023-03-04T05:40:16;10.68;;;6.57;;
50367;SDS011;36281;34.132;-118.018;2023-03-04T05:42:45;10.77;;;6.40;;
50367;SDS011;36281;34.132;-118.018;2023-03-04T05:45:14;11.02;;;6.10;;
50367;SDS011;36281;34.132;-118.018;2023-03-04T05:47:45;9.70;;;6.18;;
50367;SDS011;36281;34.132;-118.018;2023-03-04T05:50:14;9.90;;;6.35;;
50367;SDS011;36281;34.132;-118.018;2023-03-04T05:52:43;13.20;;;6.53;;
50367;SDS011;36281;34.132;-118.018;2023-03-04T05:55:12;13.57;;;6.43;;
50367;SDS011;36281;34.132;-118.018;2023-03-04T05:57:41;13.05;;;6.97;;
50367;SDS011;36281;34.132;-118.018;2023-03-04T06:00:11;14.88;;;5.93;;
50367;SDS011;36281;34.132;-118.018;2023-03-04T06:02:42;10.93;;;6.30;;
50367;SDS011;36281;34.132;-118.018;2023-03-04T06:05:13;13.13;;;6.10;;
50367;SDS011;36281;34.132;-118.018;2023-03-04T06:07:43;10.43;;;5.70;;
50367;SDS011;36281;34.132;-118.018;2023-03-04T06:10:13;8.57;;;6.00;;
50367;SDS011;36281;34.132;-118.018;2023-03-04T06:12:43;15.88;;;6.82;;
50367;SDS011;36281;34.132;-118.018;2023-03-04T06:15:12;10.95;;;6.78;;
50367;SDS011;36281;34.132;-118.018;2023-03-04T06:17:41;13.63;;;6.20;;
50367;SDS011;36281;34.132;-118.018;2023-03-04T06:20:12;11.52;;;6.75;;
50367;SDS011;36281;34.132;-118.018;2023-03-04T06:22:41;8.43;;;6.10;;
50367;SDS011;36281;34.132;-118.018;2023-03-04T06:25:10;10.50;;;6.50;;
50367;SDS011;36281;34.132;-118.018;2023-03-04T06:27:39;11.90;;;7.13;;
50367;SDS011;36281;34.132;-118.018;2023-03-04T06:30:09;10.93;;;7.03;;
50367;SDS011;36281;34.132;-118.018;2023-03-04T06:32:38;12.00;;;7.28;;
50367;SDS011;36281;34.132;-118.018;2023-03-04T06:35:12;15.07;;;7.50;;
50367;SDS011;36281;34.132;-118.018;2023-03-04T06:37:43;13.23;;;7.78;;
50367;SDS011;36281;34.132;-118.018;2023-03-04T06:40:12;12.48;;;6.85;;
50367;SDS011;36281;34.132;-118.018;2023-03-04T06:42:41;12.77;;;7.53;;
50367;SDS011;36281;34.132;-118.018;2023-03-04T06:45:10;15.00;;;7.95;;
50367;SDS011;36281;34.132;-118.018;2023-03-04T06:47:39;9.75;;;7.43;;
50367;SDS011;36281;34.132;-118.018;2023-03-04T06:50:11;19.60;;;8.65;;
50367;SDS011;36281;34.132;-118.018;2023-03-04T06:52:41;16.85;;;8.48;;
50367;SDS011;36281;34.132;-118.018;2023-03-04T06:55:10;17.13;;;8.77;;
50367;SDS011;36281;34.132;-118.018;2023-03-04T06:57:41;14.15;;;8.38;;
50367;SDS011;36281;34.132;-118.018;2023-03-04T07:00:11;11.50;;;7.93;;
50367;SDS011;36281;34.132;-118.018;2023-03-04T07:02:41;10.05;;;7.18;;
50367;SDS011;36281;34.132;-118.018;2023-03-04T07:05:10;10.15;;;7.18;;
50367;SDS011;36281;34.132;-118.018;2023-03-04T07:07:41;12.07;;;7.38;;
50367;SDS011;36281;34.132;-118.018;2023-03-04T07:10:10;9.50;;;7.20;;
50367;SDS011;36281;34.132;-118.018;2023-03-04T07:12:39;10.15;;;7.25;;
50367;SDS011;36281;34.132;-118.018;2023-03-04T07:15:09;10.55;;;7.35;;
50367;SDS011;36281;34.132;-118.018;2023-03-04T07:17:38;14.35;;;7.85;;
50367;SDS011;36281;34.132;-118.018;2023-03-04T07:20:08;11.90;;;6.93;;
50367;SDS011;36281;34.132;-118.018;2023-03-04T07:22:39;13.40;;;7.80;;
50367;SDS011;36281;34.132;-118.018;2023-03-04T07:25:08;11.60;;;7.13;;
50367;SDS011;36281;34.132;-118.018;2023-03-04T07:27:38;11.32;;;6.55;;
50367;SDS011;36281;34.132;-118.018;2023-03-04T07:30:08;12.18;;;7.50;;
50367;SDS011;36281;34.132;-118.018;2023-03-04T07:32:38;11.70;;;6.72;;
50367;SDS011;36281;34.132;-118.018;2023-03-04T07:35:07;9.70;;;6.70;;
50367;SDS011;36281;34.132;-118.018;2023-03-04T07:37:37;9.27;;;7.00;;
50367;SDS011;36281;34.132;-118.018;2023-03-04T07:40:08;15.00;;;9.43;;
50367;SDS011;36281;34.132;-118.018;2023-03-04T07:42:38;15.38;;;9.88;;
50367;SDS011;36281;34.132;-118.018;2023-03-04T07:45:07;10.88;;;8.75;;
50367;SDS011;36281;34.132;-118.018;2023-03-04T07:47:37;11.95;;;7.97;;
50367;SDS011;36281;34.132;-118.018;2023-03-04T07:50:08;12.02;;;8.88;;
50367;SDS011;36281;34.132;-118.018;2023-03-04T07:52:41;10.32;;;8.05;;
50367;SDS011;36281;34.132;-118.018;2023-03-04T07:55:11;12.10;;;7.68;;
50367;SDS011;36281;34.132;-118.018;2023-03-04T07:57:42;12.98;;;8.07;;
50367;SDS011;36281;34.132;-118.018;2023-03-04T08:00:13;11.00;;;7.80;;
50367;SDS011;36281;34.132;-118.018;2023-03-04T08:02:43;11.05;;;7.68;;
50367;SDS011;36281;34.132;-118.018;2023-03-04T08:05:13;11.30;;;7.22;;
50367;SDS011;36281;34.132;-118.018;2023-03-04T08:07:43;11.25;;;7.30;;
50367;SDS011;36281;34.132;-118.018;2023-03-04T08:10:12;11.00;;;7.60;;
50367;SDS011;36281;34.132;-118.018;2023-03-04T08:12:41;9.13;;;6.97;;
50367;SDS011;36281;34.132;-118.018;2023-03-04T08:15:11;11.02;;;7.05;;
50367;SDS011;36281;34.132;-118.018;2023-03-04T08:17:40;13.48;;;7.47;;
50367;SDS011;36281;34.132;-118.018;2023-03-04T08:20:09;11.27;;;7.70;;
50367;SDS011;36281;34.132;-118.018;2023-03-04T08:22:39;11.50;;;7.45;;
50367;SDS011;36281;34.132;-118.018;2023-03-04T08:25:10;12.98;;;7.43;;
50367;SDS011;36281;34.132;-118.018;2023-03-04T08:27:39;15.23;;;8.07;;
50367;SDS011;36281;34.132;-118.018;2023-03-04T08:30:09;12.32;;;7.07;;
50367;SDS011;36281;34.132;-118.018;2023-03-04T08:32:38;13.40;;;7.03;;
50367;SDS011;36281;34.132;-118.018;2023-03-04T08:35:08;13.27;;;7.00;;
50367;SDS011;36281;34.132;-118.018;2023-03-04T08:37:37;9.45;;;6.82;;
50367;SDS011;36281;34.132;-118.018;2023-03-04T08:40:06;10.93;;;6.97;;
50367;SDS011;36281;34.132;-118.018;2023-03-04T08:42:37;14.10;;;7.50;;
50367;SDS011;36281;34.132;-118.018;2023-03-04T08:45:07;12.55;;;6.88;;
50367;SDS011;36281;34.132;-118.018;2023-03-04T08:47:37;12.20;;;7.53;;
50367;SDS011;36281;34.132;-118.018;2023-03-04T08:50:07;9.48;;;6.75;;
50367;SDS011;36281;34.132;-118.018;2023-03-04T08:52:38;12.55;;;7.00;;
50367;SDS011;36281;34.132;-118.018;2023-03-04T08:55:07;10.02;;;6.70;;
50367;SDS011;36281;34.132;-118.018;2023-03-04T08:57:38;10.38;;;6.82;;
50367;SDS011;36281;34.132;-118.018;2023-03-04T09:00:07;10.82;;;6.60;;
50367;SDS011;36281;34.132;-118.018;2023-03-04T09:02:37;9.30;;;6.38;;
50367;SDS011;36281;34.132;-118.018;2023-03-04T09:05:06;12.43;;;6.80;;
50367;SDS011;36281;34.132;-118.018;2023-03-04T09:07:36;12.05;;;6.57;;
50367;SDS011;36281;34.132;-118.018;2023-03-04T09:10:05;8.73;;;5.90;;
50367;SDS011;36281;34.132;-118.018;2023-03-04T09:12:35;8.50;;;6.13;;
50367;SDS011;36281;34.132;-118.018;2023-03-04T09:15:06;9.20;;;5.80;;
50367;SDS011;36281;34.132;-118.018;2023-03-04T09:17:38;11.75;;;6.18;;
50367;SDS011;36281;34.132;-118.018;2023-03-04T09:20:09;11.88;;;6.20;;
50367;SDS011;36281;34.132;-118.018;2023-03-04T09:22:40;8.48;;;5.93;;
50367;SDS011;36281;34.132;-118.018;2023-03-04T09:25:10;9.07;;;5.85;;
50367;SDS011;36281;34.132;-118.018;2023-03-04T09:27:42;9.32;;;6.05;;
50367;SDS011;36281;34.132;-118.018;2023-03-04T09:30:13;15.73;;;6.57;;
50367;SDS011;36281;34.132;-118.018;2023-03-04T09:32:42;12.43;;;6.70;;
50367;SDS011;36281;34.132;-118.018;2023-03-04T09:35:11;11.63;;;6.50;;
50367;SDS011;36281;34.132;-118.018;2023-03-04T09:37:40;10.80;;;5.93;;
50367;SDS011;36281;34.132;-118.018;2023-03-04T09:40:10;10.38;;;6.70;;
50367;SDS011;36281;34.132;-118.018;2023-03-04T09:42:47;11.95;;;5.55;;
50367;SDS011;36281;34.132;-118.018;2023-03-04T09:45:20;10.40;;;6.25;;
50367;SDS011;36281;34.132;-118.018;2023-03-04T09:47:52;10.18;;;5.75;;
50367;SDS011;36281;34.132;-118.018;2023-03-04T09:50:22;10.45;;;5.95;;
50367;SDS011;36281;34.132;-118.018;2023-03-04T09:53:00;11.02;;;5.90;;
50367;SDS011;36281;34.132;-118.018;2023-03-04T09:55:35;10.38;;;6.50;;
50367;SDS011;36281;34.132;-118.018;2023-03-04T09:58:09;10.98;;;5.75;;
50367;SDS011;36281;34.132;-118.018;2023-03-04T10:00:45;8.13;;;5.35;;
50367;SDS011;36281;34.132;-118.018;2023-03-04T10:03:19;10.40;;;5.73;;
50367;SDS011;36281;34.132;-118.018;2023-03-04T10:05:52;8.63;;;5.22;;
50367;SDS011;36281;34.132;-118.018;2023-03-04T10:08:25;8.55;;;5.35;;
50367;SDS011;36281;34.132;-118.018;2023-03-04T10:11:04;10.00;;;5.80;;
50367;SDS011;36281;34.132;-118.018;2023-03-04T10:13:39;10.73;;;5.90;;
50367;SDS011;36281;34.132;-118.018;2023-03-04T10:16:23;9.32;;;5.60;;
50367;SDS011;36281;34.132;-118.018;2023-03-04T10:18:57;7.90;;;4.97;;
50367;SDS011;36281;34.132;-118.018;2023-03-04T10:21:33;11.77;;;6.53;;
50367;SDS011;36281;34.132;-118.018;2023-03-04T10:24:07;9.43;;;5.32;;
50367;SDS011;36281;34.132;-118.018;2023-03-04T10:26:40;10.85;;;6.43;;
50367;SDS011;36281;34.132;-118.018;2023-03-04T10:29:12;10.02;;;6.00;;
50367;SDS011;36281;34.132;-118.018;2023-03-04T10:31:45;9.18;;;5.57;;
50367;SDS011;36281;34.132;-118.018;2023-03-04T10:34:16;11.63;;;5.80;;
50367;SDS011;36281;34.132;-118.018;2023-03-04T10:36:47;17.35;;;6.43;;
50367;SDS011;36281;34.132;-118.018;2023-03-04T10:39:25;8.70;;;5.85;;
50367;SDS011;36281;34.132;-118.018;2023-03-04T10:41:56;12.07;;;6.60;;
50367;SDS011;36281;34.132;-118.018;2023-03-04T10:44:27;13.50;;;6.25;;
50367;SDS011;36281;34.132;-118.018;2023-03-04T10:46:59;8.18;;;5.97;;
50367;SDS011;36281;34.132;-118.018;2023-03-04T10:49:28;12.77;;;6.85;;
50367;SDS011;36281;34.132;-118.018;2023-03-04T10:52:00;10.13;;;6.50;;
50367;SDS011;36281;34.132;-118.018;2023-03-04T10:54:32;9.07;;;6.57;;
50367;SDS011;36281;34.132;-118.018;2023-03-04T10:57:12;9.88;;;6.22;;
50367;SDS011;36281;34.132;-118.018;2023-03-04T10:59:46;9.98;;;6.55;;
50367;SDS011;36281;34.132;-118.018;2023-03-04T11:02:22;9.07;;;6.28;;
50367;SDS011;36281;34.132;-118.018;2023-03-04T11:04:54;10.02;;;6.40;;
50367;SDS011;36281;34.132;-118.018;2023-03-04T11:07:25;9.65;;;6.75;;
50367;SDS011;36281;34.132;-118.018;2023-03-04T11:09:54;11.90;;;6.25;;
50367;SDS011;36281;34.132;-118.018;2023-03-04T11:12:34;11.77;;;6.82;;
50367;SDS011;36281;34.132;-118.018;2023-03-04T11:15:11;9.05;;;6.03;;
50367;SDS011;36281;34.132;-118.018;2023-03-04T11:17:48;9.27;;;5.63;;
50367;SDS011;36281;34.132;-118.018;2023-03-04T11:20:24;12.20;;;6.63;;
50367;SDS011;36281;34.132;-118.018;2023-03-04T11:23:00;10.05;;;6.88;;
50367;SDS011;36281;34.132;-118.018;2023-03-04T11:25:32;9.77;;;6.90;;
50367;SDS011;36281;34.132;-118.018;2023-03-04T11:28:04;10.95;;;7.32;;
50367;SDS011;36281;34.132;-118.018;2023-03-04T11:30:42;8.93;;;6.53;;
50367;SDS011;36281;34.132;-118.018;2023-03-04T11:33:21;10.82;;;7.15;;
50367;SDS011;36281;34.132;-118.018;2023-03-04T11:35:57;9.45;;;6.85;;
50367;SDS011;36281;34.132;-118.018;2023-03-04T11:38:35;10.43;;;6.90;;
50367;SDS011;36281;34.132;-118.018;2023-03-04T11:41:08;9.75;;;7.60;;
50367;SDS011;36281;34.132;-118.018;2023-03-04T11:43:41;9.43;;;6.85;;
50367;SDS011;36281;34.132;-118.018;2023-03-04T11:46:23;10.25;;;6.93;;
50367;SDS011;36281;34.132;-118.018;2023-03-04T11:49:23;9.57;;;6.82;;
50367;SDS011;36281;34.132;-118.018;2023-03-04T11:52:14;11.52;;;6.85;;
50367;SDS011;36281;34.132;-118.018;2023-03-04T11:55:00;11.43;;;7.28;;
50367;SDS011;36281;34.132;-118.018;2023-03-04T11:57:46;9.52;;;7.18;;
50367;SDS011;36281;34.132;-118.018;2023-03-04T12:00:29;11.30;;;7.50;;
50367;SDS011;36281;34.132;-118.018;2023-03-04T12:06:03;9.85;;;7.70;;
50367;SDS011;36281;34.132;-118.018;2023-03-04T12:08:42;9.70;;;6.88;;
50367;SDS011;36281;34.132;-118.018;2023-03-04T12:11:23;8.90;;;7.32;;
50367;SDS011;36281;34.132;-118.018;2023-03-04T12:17:03;9.95;;;7.55;;
50367;SDS011;36281;34.132;-118.018;2023-03-04T12:20:02;11.50;;;7.43;;
50367;SDS011;36281;34.132;-118.018;2023-03-04T12:22:51;13.05;;;7.70;;
50367;SDS011;36281;34.132;-118.018;2023-03-04T12:25:36;11.00;;;7.85;;
50367;SDS011;36281;34.132;-118.018;2023-03-04T12:28:11;10.30;;;6.95;;
50367;SDS011;36281;34.132;-118.018;2023-03-04T12:30:54;11.27;;;7.53;;
50367;SDS011;36281;34.132;-118.018;2023-03-04T12:33:51;8.63;;;6.72;;
50367;SDS011;36281;34.132;-118.018;2023-03-04T12:36:32;7.72;;;6.55;;
50367;SDS011;36281;34.132;-118.018;2023-03-04T12:39:14;12.93;;;7.07;;
50367;SDS011;36281;34.132;-118.018;2023-03-04T12:42:00;8.35;;;6.53;;
50367;SDS011;36281;34.132;-118.018;2023-03-04T12:44:41;9.88;;;7.03;;
50367;SDS011;36281;34.132;-118.018;2023-03-04T12:47:20;7.47;;;6.20;;
50367;SDS011;36281;34.132;-118.018;2023-03-04T12:50:00;8.40;;;6.00;;
50367;SDS011;36281;34.132;-118.018;2023-03-04T12:52:43;8.65;;;5.78;;
50367;SDS011;36281;34.132;-118.018;2023-03-04T12:55:22;11.60;;;6.40;;
50367;SDS011;36281;34.132;-118.018;2023-03-04T12:57:59;9.55;;;6.25;;
50367;SDS011;36281;34.132;-118.018;2023-03-04T13:00:31;8.23;;;6.20;;
50367;SDS011;36281;34.132;-118.018;2023-03-04T13:03:09;9.00;;;6.10;;
50367;SDS011;36281;34.132;-118.018;2023-03-04T13:05:52;8.88;;;5.93;;
50367;SDS011;36281;34.132;-118.018;2023-03-04T13:08:32;10.80;;;6.68;;
50367;SDS011;36281;34.132;-118.018;2023-03-04T13:14:21;8.63;;;6.03;;
50367;SDS011;36281;34.132;-118.018;2023-03-04T13:16:52;9.25;;;5.95;;
50367;SDS011;36281;34.132;-118.018;2023-03-04T13:22:27;8.77;;;6.03;;
50367;SDS011;36281;34.132;-118.018;2023-03-04T13:25:01;9.40;;;6.00;;
50367;SDS011;36281;34.132;-118.018;2023-03-04T13:28:14;11.00;;;6.68;;
50367;SDS011;36281;34.132;-118.018;2023-03-04T13:36:33;8.52;;;5.70;;
50367;SDS011;36281;34.132;-118.018;2023-03-04T13:39:24;9.63;;;6.47;;
50367;SDS011;36281;34.132;-118.018;2023-03-04T13:41:55;9.98;;;6.15;;
50367;SDS011;36281;34.132;-118.018;2023-03-04T13:44:33;10.02;;;6.30;;
50367;SDS011;36281;34.132;-118.018;2023-03-04T13:47:17;9.57;;;5.82;;
50367;SDS011;36281;34.132;-118.018;2023-03-04T13:49:48;7.43;;;5.82;;
50367;SDS011;36281;34.132;-118.018;2023-03-04T13:52:36;9.27;;;6.28;;
50367;SDS011;36281;34.132;-118.018;2023-03-04T13:58:12;11.80;;;7.05;;
50367;SDS011;36281;34.132;-118.018;2023-03-04T14:00:49;10.35;;;7.53;;
50367;SDS011;36281;34.132;-118.018;2023-03-04T14:03:22;9.77;;;6.20;;
50367;SDS011;36281;34.132;-118.018;2023-03-04T14:06:09;9.32;;;7.25;;
50367;SDS011;36281;34.132;-118.018;2023-03-04T14:08:43;9.07;;;6.35;;
50367;SDS011;36281;34.132;-118.018;2023-03-04T14:11:13;8.20;;;5.88;;
50367;SDS011;36281;34.132;-118.018;2023-03-04T14:13:45;9.40;;;6.20;;
50367;SDS011;36281;34.132;-118.018;2023-03-04T14:16:20;8.60;;;6.63;;
50367;SDS011;36281;34.132;-118.018;2023-03-04T14:19:01;9.32;;;6.45;;
50367;SDS011;36281;34.132;-118.018;2023-03-04T14:21:31;8.52;;;6.82;;
50367;SDS011;36281;34.132;-118.018;2023-03-04T14:24:02;8.23;;;6.30;;
50367;SDS011;36281;34.132;-118.018;2023-03-04T14:26:33;12.98;;;6.88;;
50367;SDS011;36281;34.132;-118.018;2023-03-04T14:29:17;8.85;;;6.40;;
50367;SDS011;36281;34.132;-118.018;2023-03-04T14:31:49;11.13;;;6.32;;
50367;SDS011;36281;34.132;-118.018;2023-03-04T14:34:22;10.45;;;6.32;;
50367;SDS011;36281;34.132;-118.018;2023-03-04T14:36:55;9.15;;;6.15;;
50367;SDS011;36281;34.132;-118.018;2023-03-04T14:39:25;9.57;;;6.20;;
50367;SDS011;36281;34.132;-118.018;2023-03-04T14:41:57;11.05;;;7.05;;
50367;SDS011;36281;34.132;-118.018;2023-03-04T14:44:31;9.00;;;6.25;;
50367;SDS011;36281;34.132;-118.018;2023-03-04T14:47:11;9.82;;;6.80;;
50367;SDS011;36281;34.132;-118.018;2023-03-04T14:49:45;8.10;;;6.38;;
50367;SDS011;36281;34.132;-118.018;2023-03-04T14:52:30;7.78;;;6.10;;